East Elmore, Vermont
Current Conditions -  °F | °C
As of 6:55 AM on Friday 21 Nov 2014 (Local Time) from KCDA Reporting Station
Light Snow Light Snow  
Wind Chill: 11°   Ceiling: 1800
Heat Index: 20°   Visibility: 1.7mi
Dew Point: 16°   Wind: 7mph
Humidity: 85%   Direction: 240°WSW
Pressure: 29.93"   Gusts: NA
Location:  44.5359°N, 72.4842°W
Report Text: KCDA 211155Z AUTO 24006KT 1 3/4SM -SN SCT010 BKN018 OVC025 M07/M09 A2993 RMK AO2 T10681090 11062 21076
Loading
Personal Weather Stations






























Interactive Weather Map New forecast layout! Learn more

10-Day Weather Forecast

Advertisements
Track Severe Weather on mobile